createdAt,value
2023-05-23T00:01:45.586Z,19.95
2023-05-23T00:04:19.009Z,19.86
2023-05-23T00:06:46.869Z,19.88
2023-05-23T00:09:14.803Z,19.84
2023-05-23T00:11:45.310Z,19.69
2023-05-23T00:14:13.657Z,19.82
2023-05-23T00:16:41.677Z,19.61
2023-05-23T00:19:10.063Z,19.59
2023-05-23T00:21:37.538Z,19.68
2023-05-23T00:24:05.138Z,19.63
2023-05-23T00:26:32.526Z,19.68
2023-05-23T00:28:59.770Z,19.64
2023-05-23T00:31:27.568Z,19.61
2023-05-23T00:33:54.813Z,19.64
2023-05-23T00:36:22.234Z,19.63
2023-05-23T00:38:49.727Z,19.56
2023-05-23T00:41:18.566Z,19.56
2023-05-23T00:43:46.718Z,19.61
2023-05-23T00:46:14.188Z,19.58
2023-05-23T00:48:41.387Z,19.50
2023-05-23T00:51:08.683Z,19.46
2023-05-23T00:53:36.223Z,19.50
2023-05-23T00:56:03.458Z,19.42
2023-05-23T00:58:30.856Z,19.48
2023-05-23T01:00:59.942Z,19.39
2023-05-23T01:03:28.658Z,19.43
2023-05-23T01:05:56.625Z,19.40
2023-05-23T01:08:24.156Z,19.26
2023-05-23T01:10:51.513Z,19.31
2023-05-23T01:13:37.585Z,19.27
2023-05-23T01:16:06.907Z,19.34
2023-05-23T01:18:41.494Z,19.30
2023-05-23T01:21:19.012Z,19.29
2023-05-23T01:24:05.844Z,19.30
2023-05-23T01:26:49.157Z,19.35
2023-05-23T01:29:22.135Z,19.33
2023-05-23T01:31:50.015Z,19.29
2023-05-23T01:34:18.837Z,19.31
2023-05-23T01:36:46.665Z,19.25
2023-05-23T01:39:14.240Z,19.20
2023-05-23T01:41:41.475Z,19.15
2023-05-23T01:44:08.978Z,19.22
2023-05-23T01:46:36.535Z,19.14
2023-05-23T01:49:03.867Z,19.08
2023-05-23T01:51:32.967Z,19.05
2023-05-23T01:54:00.567Z,18.95
2023-05-23T01:56:28.142Z,18.97
2023-05-23T01:58:55.647Z,18.98
2023-05-23T02:01:23.282Z,19.00
2023-05-23T02:03:51.690Z,18.98
2023-05-23T02:06:18.908Z,18.96
2023-05-23T02:08:47.355Z,18.93
2023-05-23T02:11:14.929Z,18.93
2023-05-23T02:13:42.202Z,18.92
2023-05-23T02:16:09.444Z,18.81
2023-05-23T02:18:38.224Z,18.90
2023-05-23T02:21:06.053Z,18.91
2023-05-23T02:23:33.254Z,18.89
2023-05-23T02:26:00.455Z,18.84
2023-05-23T02:28:27.898Z,18.89
2023-05-23T02:30:55.116Z,18.85
2023-05-23T02:33:22.355Z,18.91
2023-05-23T02:35:51.750Z,18.86
2023-05-23T02:38:20.677Z,18.79
2023-05-23T02:40:50.407Z,18.80
2023-05-23T02:43:17.972Z,18.71
2023-05-23T02:45:45.747Z,18.66
2023-05-23T02:48:13.003Z,18.78
2023-05-23T02:50:40.648Z,18.77
2023-05-23T02:53:07.957Z,18.70
2023-05-23T02:55:35.189Z,18.79
2023-05-23T02:58:05.861Z,18.82
2023-05-23T03:00:33.211Z,18.79
2023-05-23T03:03:00.619Z,18.75
2023-05-23T03:05:28.150Z,18.68
2023-05-23T03:07:55.389Z,18.75
2023-05-23T03:10:22.586Z,18.75
2023-05-23T03:12:50.474Z,18.78
2023-05-23T03:15:17.910Z,18.79
2023-05-23T03:17:45.500Z,18.73
2023-05-23T03:20:15.809Z,18.71
2023-05-23T03:22:45.443Z,18.75
2023-05-23T03:25:13.013Z,18.74
2023-05-23T03:27:40.321Z,18.72
2023-05-23T03:30:07.858Z,18.81
2023-05-23T03:32:36.044Z,18.73
2023-05-23T03:35:03.289Z,18.71
2023-05-23T03:37:30.550Z,18.71
2023-05-23T03:39:58.176Z,18.71
2023-05-23T03:42:25.665Z,18.70
2023-05-23T03:44:52.845Z,18.75
2023-05-23T03:47:20.479Z,18.78
2023-05-23T03:49:47.978Z,18.83
2023-05-23T03:52:15.214Z,18.70
2023-05-23T03:54:42.973Z,18.81
2023-05-23T03:57:10.286Z,18.80
2023-05-23T03:59:37.620Z,18.78
2023-05-23T04:02:06.005Z,18.75
2023-05-23T04:04:33.599Z,18.84
2023-05-23T04:07:01.622Z,18.90
2023-05-23T04:09:29.039Z,18.88
2023-05-23T04:11:57.545Z,18.95
2023-05-23T04:14:24.767Z,18.88
2023-05-23T04:16:52.683Z,18.86
2023-05-23T04:19:20.215Z,18.89
2023-05-23T04:21:47.741Z,19.02
2023-05-23T04:24:15.296Z,19.00
2023-05-23T04:26:43.296Z,19.14
2023-05-23T04:29:12.277Z,19.04
2023-05-23T04:31:39.687Z,19.15
2023-05-23T04:34:08.242Z,19.24
2023-05-23T04:36:38.113Z,19.28
2023-05-23T04:39:05.762Z,19.27
2023-05-23T04:41:34.090Z,19.28
2023-05-23T04:44:02.599Z,19.34
2023-05-23T04:46:30.901Z,19.50
2023-05-23T04:49:02.371Z,19.56
2023-05-23T04:51:29.630Z,19.65
2023-05-23T04:53:57.266Z,19.72
2023-05-23T04:56:28.158Z,19.81
2023-05-23T04:58:56.166Z,19.82
2023-05-23T05:01:24.775Z,19.94
2023-05-23T05:03:52.874Z,20.03
2023-05-23T05:06:21.323Z,20.15
2023-05-23T05:08:48.551Z,20.22
2023-05-23T05:11:16.160Z,20.21
2023-05-23T05:13:43.647Z,20.35
2023-05-23T05:16:10.985Z,20.47
2023-05-23T05:18:39.123Z,20.62
2023-05-23T05:21:06.653Z,20.78
2023-05-23T05:23:33.854Z,20.83
2023-05-23T05:26:01.368Z,20.88
2023-05-23T05:28:28.689Z,21.04
2023-05-23T05:30:56.079Z,20.96
2023-05-23T05:33:24.934Z,21.02
2023-05-23T05:35:53.128Z,21.21
2023-05-23T05:38:20.810Z,21.27
2023-05-23T05:40:48.292Z,21.42
2023-05-23T05:43:16.325Z,21.34
2023-05-23T05:45:43.582Z,21.45
2023-05-23T05:48:12.100Z,21.61
2023-05-23T05:50:39.925Z,21.65
2023-05-23T05:53:08.693Z,21.91
2023-05-23T05:55:36.230Z,22.04
2023-05-23T05:58:03.451Z,22.25
2023-05-23T06:00:32.102Z,22.12
2023-05-23T06:02:59.714Z,22.20
2023-05-23T06:05:27.316Z,22.46
2023-05-23T06:07:54.680Z,22.52
2023-05-23T06:10:22.222Z,22.67
2023-05-23T06:12:50.595Z,22.89
2023-05-23T06:15:18.390Z,22.88
2023-05-23T06:17:46.157Z,23.06
2023-05-23T06:20:13.887Z,23.36
2023-05-23T06:22:41.825Z,23.61
2023-05-23T06:25:09.567Z,23.64
2023-05-23T06:27:38.036Z,23.88
2023-05-23T06:30:05.631Z,23.86
2023-05-23T06:32:33.320Z,24.07
2023-05-23T06:35:00.585Z,24.24
2023-05-23T06:37:27.782Z,24.37
2023-05-23T06:39:56.888Z,24.80
2023-05-23T06:42:24.086Z,24.87
2023-05-23T06:44:51.951Z,24.81
2023-05-23T06:47:19.592Z,25.03
2023-05-23T06:49:47.081Z,25.30
2023-05-23T06:52:14.743Z,25.58
2023-05-23T06:54:42.553Z,25.72
2023-05-23T06:57:10.266Z,25.84
2023-05-23T06:59:37.488Z,26.04
2023-05-23T07:02:05.177Z,26.45
2023-05-23T07:04:32.499Z,26.65
2023-05-23T07:07:00.671Z,26.62
2023-05-23T07:09:28.314Z,26.70
2023-05-23T07:11:58.556Z,26.94
2023-05-23T07:14:26.061Z,27.19
2023-05-23T07:16:54.242Z,27.04
2023-05-23T07:19:21.729Z,27.27
2023-05-23T07:21:49.466Z,27.41
2023-05-23T07:24:17.362Z,27.67
2023-05-23T07:26:44.696Z,27.72
2023-05-23T07:29:12.160Z,27.86
2023-05-23T07:31:39.957Z,27.81
2023-05-23T07:34:07.769Z,28.03
2023-05-23T07:36:40.921Z,28.16
2023-05-23T07:39:10.909Z,28.12
2023-05-23T07:41:38.326Z,28.11
2023-05-23T07:44:07.139Z,28.38
2023-05-23T07:46:35.094Z,28.25
2023-05-23T07:49:02.557Z,28.47
2023-05-23T07:51:30.957Z,28.41
2023-05-23T07:53:59.634Z,28.63
2023-05-23T07:56:27.067Z,28.87
2023-05-23T07:58:54.420Z,28.69
2023-05-23T08:01:22.333Z,28.90
2023-05-23T08:03:51.000Z,28.93
2023-05-23T08:06:18.757Z,29.09
2023-05-23T08:08:46.507Z,28.92
2023-05-23T08:11:15.554Z,29.09
2023-05-23T08:13:43.066Z,29.27
2023-05-23T08:16:12.032Z,29.08
2023-05-23T08:18:40.140Z,29.06
2023-05-23T08:21:07.938Z,29.16
2023-05-23T08:23:35.483Z,29.42
2023-05-23T08:26:03.361Z,29.59
2023-05-23T08:28:31.555Z,29.64
2023-05-23T08:31:00.923Z,29.58
2023-05-23T08:33:29.219Z,29.18
2023-05-23T08:35:57.091Z,29.31
2023-05-23T08:38:24.923Z,29.54
2023-05-23T08:40:53.636Z,29.58
2023-05-23T08:43:21.394Z,29.52
2023-05-23T08:45:49.216Z,29.49
2023-05-23T08:48:16.930Z,29.54
2023-05-23T08:50:46.530Z,29.79
2023-05-23T08:53:20.353Z,29.75
2023-05-23T08:55:49.233Z,29.61
2023-05-23T08:58:16.784Z,29.65
2023-05-23T09:00:45.244Z,29.88
2023-05-23T09:03:13.118Z,29.92
2023-05-23T09:05:42.063Z,30.03
2023-05-23T09:08:09.788Z,29.87
2023-05-23T09:10:37.891Z,29.95
2023-05-23T09:13:05.725Z,29.82
2023-05-23T09:15:33.191Z,30.00
2023-05-23T09:18:04.278Z,30.22
2023-05-23T09:20:35.662Z,30.38
2023-05-23T09:23:05.938Z,30.28
2023-05-23T09:25:33.383Z,30.26
2023-05-23T09:28:01.466Z,30.36
2023-05-23T09:30:29.408Z,30.34
2023-05-23T09:32:58.060Z,30.29
2023-05-23T09:35:25.440Z,30.49
2023-05-23T09:37:56.215Z,30.53
2023-05-23T09:40:23.576Z,30.11
2023-05-23T09:42:52.073Z,30.41
2023-05-23T09:45:22.353Z,30.45
2023-05-23T09:47:50.953Z,30.56
2023-05-23T09:50:18.585Z,30.69
2023-05-23T09:52:47.210Z,30.80
2023-05-23T09:55:15.033Z,30.41
2023-05-23T09:57:43.831Z,30.75
2023-05-23T10:00:13.704Z,30.95
2023-05-23T10:02:54.084Z,31.06
2023-05-23T10:05:28.015Z,31.09
2023-05-23T10:07:57.556Z,31.14
2023-05-23T10:10:25.217Z,31.08
2023-05-23T10:12:52.542Z,31.17
2023-05-23T10:15:20.019Z,31.26
2023-05-23T10:18:02.759Z,31.37
2023-05-23T10:20:31.941Z,31.41
2023-05-23T10:23:00.398Z,31.44
2023-05-23T10:25:27.983Z,31.33
2023-05-23T10:27:59.559Z,31.42
2023-05-23T10:30:28.302Z,31.18
2023-05-23T10:32:55.977Z,31.34
2023-05-23T10:35:32.583Z,31.27
2023-05-23T10:38:19.018Z,31.51
2023-05-23T10:40:55.609Z,31.22
2023-05-23T10:43:26.490Z,31.06
2023-05-23T10:45:53.817Z,30.98
2023-05-23T10:48:21.753Z,31.08
2023-05-23T10:51:05.723Z,31.23
2023-05-23T10:53:34.728Z,31.30
2023-05-23T10:56:02.676Z,30.79
2023-05-23T10:58:30.542Z,30.39
2023-05-23T11:01:02.302Z,30.29
2023-05-23T11:03:35.467Z,30.00
2023-05-23T11:06:03.454Z,30.28
2023-05-23T11:08:47.031Z,30.42
2023-05-23T11:11:15.538Z,30.65
2023-05-23T11:13:49.497Z,30.75
2023-05-23T11:16:32.896Z,30.69
2023-05-23T11:19:19.486Z,30.95
2023-05-23T11:21:47.018Z,31.13
2023-05-23T11:24:14.669Z,31.25
2023-05-23T11:26:42.920Z,31.43
2023-05-23T11:29:10.373Z,31.39
2023-05-23T11:31:38.528Z,31.41
2023-05-23T11:34:06.434Z,31.34
2023-05-23T11:36:33.897Z,31.20
2023-05-23T11:39:04.537Z,31.25
2023-05-23T11:41:33.510Z,31.24
2023-05-23T11:44:01.691Z,31.32
2023-05-23T11:46:29.460Z,31.52
2023-05-23T11:48:57.078Z,31.53
2023-05-23T11:51:24.290Z,31.60
2023-05-23T11:53:51.780Z,31.59
2023-05-23T11:56:19.199Z,31.73
2023-05-23T11:58:46.556Z,31.62
2023-05-23T12:01:14.327Z,31.56
2023-05-23T12:03:46.670Z,31.37
2023-05-23T12:06:20.089Z,31.49
2023-05-23T12:08:47.763Z,31.42
2023-05-23T12:11:15.208Z,31.31
2023-05-23T12:13:42.914Z,31.30
2023-05-23T12:16:12.028Z,31.35
2023-05-23T12:18:39.740Z,31.30
2023-05-23T12:21:08.517Z,31.29
2023-05-23T12:23:36.706Z,31.46
2023-05-23T12:26:04.704Z,31.49
2023-05-23T12:28:39.043Z,31.62
2023-05-23T12:31:14.017Z,31.49
2023-05-23T12:33:43.890Z,31.19
2023-05-23T12:36:12.132Z,30.98
2023-05-23T12:38:41.039Z,31.07
2023-05-23T12:41:09.555Z,31.12
2023-05-23T12:43:40.707Z,31.19
2023-05-23T12:46:08.078Z,30.96
2023-05-23T12:48:35.756Z,30.84
2023-05-23T12:51:04.402Z,30.95
2023-05-23T12:53:31.784Z,31.10
2023-05-23T12:56:01.044Z,31.31
2023-05-23T12:58:31.072Z,31.45
2023-05-23T13:00:59.059Z,31.35
2023-05-23T13:03:26.913Z,31.17
2023-05-23T13:05:54.589Z,31.06
2023-05-23T13:08:22.480Z,31.27
2023-05-23T13:10:49.807Z,31.16
2023-05-23T13:13:17.673Z,31.06
2023-05-23T13:15:46.385Z,31.16
2023-05-23T13:18:15.473Z,31.28
2023-05-23T13:20:43.141Z,31.23
2023-05-23T13:23:10.496Z,31.40
2023-05-23T13:25:37.849Z,31.36
2023-05-23T13:28:05.707Z,31.21
2023-05-23T13:30:34.615Z,31.35
2023-05-23T13:33:02.117Z,31.17
2023-05-23T13:35:29.729Z,31.33
2023-05-23T13:37:56.993Z,31.40
2023-05-23T13:40:24.471Z,31.53
2023-05-23T13:42:55.056Z,31.55
2023-05-23T13:45:23.396Z,31.53
2023-05-23T13:47:51.134Z,31.54
2023-05-23T13:50:19.237Z,31.60
2023-05-23T13:52:49.304Z,31.48
2023-05-23T13:55:18.667Z,31.41
2023-05-23T13:57:46.680Z,31.25
2023-05-23T14:00:14.636Z,31.24
2023-05-23T14:02:42.374Z,31.36
2023-05-23T14:05:11.859Z,31.33
2023-05-23T14:07:39.284Z,31.24
2023-05-23T14:10:07.258Z,30.93
2023-05-23T14:12:34.604Z,30.95
2023-05-23T14:15:02.017Z,31.09
2023-05-23T14:17:29.834Z,31.05
2023-05-23T14:19:57.217Z,30.71
2023-05-23T14:22:24.526Z,30.85
2023-05-23T14:24:52.325Z,30.94
2023-05-23T14:27:19.859Z,31.12
2023-05-23T14:29:47.222Z,30.87
2023-05-23T14:32:14.992Z,30.91
2023-05-23T14:34:42.557Z,30.74
2023-05-23T14:37:09.931Z,30.58
2023-05-23T14:39:37.584Z,30.73
2023-05-23T14:42:05.128Z,30.78
2023-05-23T14:44:32.588Z,30.79
2023-05-23T14:47:00.065Z,30.80
2023-05-23T14:49:27.403Z,30.58
2023-05-23T14:51:54.862Z,30.50
2023-05-23T14:54:22.538Z,30.66
2023-05-23T14:56:53.262Z,30.54
2023-05-23T14:59:21.826Z,30.48
2023-05-23T15:01:49.459Z,30.31
2023-05-23T15:04:16.844Z,30.58
2023-05-23T15:06:44.636Z,30.60
2023-05-23T15:09:12.755Z,30.60
2023-05-23T15:11:40.435Z,30.58
2023-05-23T15:14:07.712Z,30.55
2023-05-23T15:16:36.813Z,30.48
2023-05-23T15:19:05.061Z,30.59
2023-05-23T15:21:32.485Z,30.67
2023-05-23T15:24:00.217Z,30.32
2023-05-23T15:26:27.578Z,30.54
2023-05-23T15:28:54.946Z,30.31
2023-05-23T15:31:23.643Z,30.43
2023-05-23T15:33:51.066Z,30.27
2023-05-23T15:36:18.407Z,30.22
2023-05-23T15:38:46.085Z,30.08
2023-05-23T15:41:13.333Z,30.39
2023-05-23T15:43:40.622Z,30.24
2023-05-23T15:46:08.177Z,29.98
2023-05-23T15:48:35.479Z,29.75
2023-05-23T15:51:02.676Z,29.59
2023-05-23T15:53:34.361Z,29.80
2023-05-23T15:56:04.399Z,29.70
2023-05-23T15:58:32.395Z,29.54
2023-05-23T16:00:59.648Z,29.65
2023-05-23T16:03:27.189Z,29.66
2023-05-23T16:05:54.706Z,29.68
2023-05-23T16:08:21.887Z,29.58
2023-05-23T16:10:50.468Z,29.50
2023-05-23T16:13:18.104Z,29.38
2023-05-23T16:15:45.609Z,29.30
2023-05-23T16:18:14.433Z,29.39
2023-05-23T16:20:41.669Z,29.31
2023-05-23T16:23:08.860Z,29.19
2023-05-23T16:25:36.383Z,29.14
2023-05-23T16:28:03.577Z,29.21
2023-05-23T16:30:30.822Z,29.17
2023-05-23T16:32:58.386Z,29.16
2023-05-23T16:35:25.666Z,29.13
2023-05-23T16:37:53.129Z,28.84
2023-05-23T16:40:20.699Z,28.81
2023-05-23T16:42:47.926Z,28.88
2023-05-23T16:45:15.219Z,28.85
2023-05-23T16:47:42.759Z,28.58
2023-05-23T16:50:10.210Z,28.60
2023-05-23T16:52:37.555Z,28.62
2023-05-23T16:55:05.179Z,28.52
2023-05-23T16:57:32.391Z,28.47
2023-05-23T16:59:59.616Z,28.33
2023-05-23T17:02:27.174Z,28.33
2023-05-23T17:04:55.698Z,28.10
2023-05-23T17:07:22.900Z,28.04
2023-05-23T17:09:50.569Z,28.15
2023-05-23T17:12:17.831Z,27.99
2023-05-23T17:14:45.357Z,27.96
2023-05-23T17:17:12.842Z,27.92
2023-05-23T17:19:40.231Z,27.46
2023-05-23T17:22:08.034Z,27.27
2023-05-23T17:24:36.590Z,26.22
2023-05-23T17:27:04.201Z,25.81
2023-05-23T17:29:31.575Z,25.30
2023-05-23T17:31:59.232Z,25.06
2023-05-23T17:34:28.940Z,24.59
2023-05-23T17:36:56.195Z,24.48
2023-05-23T17:39:23.661Z,24.11
2023-05-23T17:41:50.905Z,24.00
2023-05-23T17:44:18.349Z,23.57
2023-05-23T17:46:46.198Z,23.53
2023-05-23T17:49:13.458Z,23.51
2023-05-23T17:51:40.666Z,23.38
2023-05-23T17:54:08.187Z,23.45
2023-05-23T17:56:35.445Z,23.11
2023-05-23T17:59:03.174Z,23.01
2023-05-23T18:01:30.719Z,23.05
2023-05-23T18:03:58.232Z,23.10
2023-05-23T18:06:26.924Z,23.20
2023-05-23T18:08:54.505Z,23.16
2023-05-23T18:11:22.782Z,22.79
2023-05-23T18:13:50.147Z,22.63
2023-05-23T18:16:17.330Z,22.73
2023-05-23T18:18:44.856Z,22.76
2023-05-23T18:21:12.426Z,22.48
2023-05-23T18:23:39.724Z,22.50
2023-05-23T18:26:07.276Z,22.50
2023-05-23T18:28:34.495Z,22.46
2023-05-23T18:31:02.050Z,22.38
2023-05-23T18:33:29.667Z,22.37
2023-05-23T18:35:57.006Z,22.14
2023-05-23T18:38:24.602Z,21.82
2023-05-23T18:40:52.138Z,21.94
2023-05-23T18:43:19.613Z,21.77
2023-05-23T18:45:47.055Z,21.49
2023-05-23T18:48:14.732Z,21.40
2023-05-23T18:50:42.670Z,21.43
2023-05-23T18:53:10.686Z,21.50
2023-05-23T18:55:38.217Z,21.40
2023-05-23T18:58:05.542Z,21.46
2023-05-23T19:00:32.755Z,21.66
2023-05-23T19:03:00.490Z,21.55
2023-05-23T19:05:29.263Z,21.64
2023-05-23T19:07:56.534Z,21.80
2023-05-23T19:10:24.095Z,21.94
2023-05-23T19:12:51.896Z,22.01
2023-05-23T19:15:19.495Z,22.13
2023-05-23T19:17:47.433Z,22.20
2023-05-23T19:20:18.439Z,22.25
2023-05-23T19:22:52.372Z,22.40
2023-05-23T19:25:20.883Z,22.35
2023-05-23T19:27:48.279Z,22.33
2023-05-23T19:30:15.555Z,22.24
2023-05-23T19:32:43.203Z,22.30
2023-05-23T19:35:10.506Z,22.39
2023-05-23T19:37:37.789Z,22.41
2023-05-23T19:40:06.459Z,22.33
2023-05-23T19:42:33.660Z,22.36
2023-05-23T19:45:00.899Z,22.31
2023-05-23T19:47:30.873Z,22.34
2023-05-23T19:49:58.330Z,22.53
2023-05-23T19:52:25.923Z,22.38
2023-05-23T19:54:53.435Z,22.40
2023-05-23T19:57:20.830Z,22.46
2023-05-23T19:59:48.254Z,22.44
2023-05-23T20:02:15.866Z,22.47
2023-05-23T20:04:43.496Z,22.31
2023-05-23T20:07:10.994Z,22.19
2023-05-23T20:09:38.211Z,22.19
2023-05-23T20:12:06.173Z,22.28
2023-05-23T20:14:34.214Z,22.24
2023-05-23T20:17:01.394Z,22.16
2023-05-23T20:19:28.880Z,22.42
2023-05-23T20:21:57.171Z,22.32
2023-05-23T20:24:24.381Z,22.29
2023-05-23T20:26:52.104Z,22.38
2023-05-23T20:29:19.802Z,22.34
2023-05-23T20:31:47.192Z,22.42
2023-05-23T20:34:14.753Z,22.55
2023-05-23T20:36:42.097Z,22.64
2023-05-23T20:39:09.624Z,22.56
2023-05-23T20:41:37.458Z,22.49
2023-05-23T20:44:04.869Z,22.51
2023-05-23T20:46:32.175Z,22.52
2023-05-23T20:49:01.280Z,22.52
2023-05-23T20:51:28.632Z,22.45
2023-05-23T20:53:55.859Z,22.49
2023-05-23T20:56:24.541Z,22.46
2023-05-23T20:58:51.824Z,22.43
2023-05-23T21:01:22.761Z,22.47
2023-05-23T21:03:50.527Z,22.46
2023-05-23T21:06:17.741Z,22.43
2023-05-23T21:08:44.967Z,22.53
2023-05-23T21:11:12.476Z,22.12
2023-05-23T21:13:40.050Z,22.20
2023-05-23T21:16:08.701Z,22.14
2023-05-23T21:18:36.318Z,22.15
2023-05-23T21:21:03.599Z,22.19
2023-05-23T21:23:30.986Z,22.23
2023-05-23T21:25:58.439Z,22.15
2023-05-23T21:28:25.718Z,22.15
2023-05-23T21:30:53.672Z,22.18
2023-05-23T21:33:21.211Z,22.11
2023-05-23T21:35:48.555Z,22.08
2023-05-23T21:38:15.917Z,22.10
2023-05-23T21:40:43.627Z,22.07
2023-05-23T21:43:11.064Z,21.92
2023-05-23T21:45:38.263Z,22.02
2023-05-23T21:48:05.883Z,21.96
2023-05-23T21:50:33.152Z,21.84
2023-05-23T21:53:00.429Z,21.75
2023-05-23T21:55:28.185Z,21.76
2023-05-23T21:57:55.349Z,21.78
2023-05-23T22:00:22.782Z,21.75
2023-05-23T22:02:50.854Z,21.66
2023-05-23T22:05:18.191Z,21.72
2023-05-23T22:07:45.866Z,21.79
2023-05-23T22:10:13.341Z,21.67
2023-05-23T22:12:40.531Z,21.72
2023-05-23T22:15:08.398Z,21.66
2023-05-23T22:17:36.532Z,21.62
2023-05-23T22:20:05.420Z,21.64
2023-05-23T22:22:32.700Z,21.56
2023-05-23T22:25:00.151Z,21.59
2023-05-23T22:27:27.387Z,21.46
2023-05-23T22:29:54.585Z,21.48
2023-05-23T22:32:22.063Z,21.44
2023-05-23T22:34:49.213Z,21.39
2023-05-23T22:37:16.849Z,21.39
2023-05-23T22:39:44.304Z,21.39
2023-05-23T22:42:11.526Z,21.15
2023-05-23T22:44:38.714Z,21.16
2023-05-23T22:47:06.311Z,21.22
2023-05-23T22:49:33.574Z,21.12
2023-05-23T22:52:01.251Z,21.18
2023-05-23T22:54:28.736Z,20.98
2023-05-23T22:56:55.992Z,21.13
2023-05-23T22:59:23.204Z,21.19
2023-05-23T23:01:51.241Z,21.22
2023-05-23T23:04:23.471Z,21.07
2023-05-23T23:06:53.564Z,21.00
2023-05-23T23:09:21.238Z,21.05
2023-05-23T23:11:48.516Z,20.94
2023-05-23T23:14:16.039Z,20.81
2023-05-23T23:16:43.307Z,20.90
2023-05-23T23:19:10.535Z,21.01
2023-05-23T23:21:38.103Z,21.02
2023-05-23T23:24:05.962Z,20.95
2023-05-23T23:26:33.119Z,21.03
2023-05-23T23:29:00.659Z,20.93
2023-05-23T23:31:27.930Z,20.89
2023-05-23T23:33:55.155Z,20.92
2023-05-23T23:36:22.639Z,20.97
2023-05-23T23:38:49.822Z,20.83
2023-05-23T23:41:17.034Z,20.79
2023-05-23T23:43:44.558Z,20.83
2023-05-23T23:46:12.042Z,20.79
2023-05-23T23:48:39.255Z,20.87
2023-05-23T23:51:06.856Z,20.79
2023-05-23T23:53:34.162Z,20.75
2023-05-23T23:56:01.363Z,20.69
2023-05-23T23:58:28.889Z,20.64
